Time;durP1;ratioP1;P1;durP2;ratioP2;P2;SDS_P1;SDS_P2;PMS_P1;PMS_P2;Temp;Humidity;BMP_temperature;BMP_pressure;BME280_temperature;BME280_humidity;BME280_pressure;Samples;Min_cycle;Max_cycle;Signal;HPM_P1;HPM_P2
2021/03/28 00:00:59;;;;;;;3.97;1.48;;;;;;;25.95;26.18;97825.63;5026570;28;20154;-27
2021/03/28 00:03:26;;;;;;;6.85;1.70;;;;;;;25.95;26.19;97820.38;5061641;28;20028;-28
2021/03/28 00:05:51;;;;;;;3.58;1.60;;;;;;;25.95;26.29;97825.63;5045018;28;20031;-28
2021/03/28 00:08:20;;;;;;;3.72;1.60;;;;;;;25.95;26.21;97825.63;5044859;28;20459;-25
2021/03/28 00:10:47;;;;;;;5.78;1.60;;;;;;;25.95;26.16;97823.00;5060577;28;20056;-26
2021/03/28 00:13:16;;;;;;;4.03;1.23;;;;;;;25.95;26.29;97820.38;5028560;28;20115;-25
2021/03/28 00:16:01;;;;;;;3.83;1.60;;;;;;;25.95;26.12;97828.25;5044288;28;20039;-27
2021/03/28 00:18:32;;;;;;;2.92;1.30;;;;;;;25.94;26.30;97830.00;5043186;28;20408;-23
2021/03/28 00:21:10;;;;;;;6.05;1.40;;;;;;;25.95;26.20;97823.00;5029997;28;20032;-28
2021/03/28 00:23:44;;;;;;;4.38;1.67;;;;;;;25.95;26.12;97825.63;5032322;28;20032;-28
2021/03/28 00:26:30;;;;;;;5.57;1.67;;;;;;;25.94;25.98;97822.13;5054537;28;20024;-29
2021/03/28 00:29:07;;;;;;;3.42;1.45;;;;;;;25.94;26.33;97821.28;5056600;28;20024;-24
2021/03/28 00:31:34;;;;;;;4.10;1.70;;;;;;;25.93;26.12;97823.03;5046658;28;20650;-28
2021/03/28 00:34:11;;;;;;;5.22;1.83;;;;;;;25.93;26.25;97816.94;5033914;28;20047;-29
2021/03/28 00:37:01;;;;;;;5.45;1.88;;;;;;;25.94;26.17;97818.66;5049683;28;22762;-28
2021/03/28 00:39:36;;;;;;;3.42;1.33;;;;;;;25.94;26.09;97823.91;5049008;28;20033;-29
2021/03/28 00:42:09;;;;;;;2.58;1.10;;;;;;;25.93;26.09;97819.56;5048749;28;20037;-28
2021/03/28 00:44:44;;;;;;;3.35;1.30;;;;;;;25.92;26.21;97821.34;5048647;28;20075;-27
2021/03/28 00:47:11;;;;;;;2.35;1.38;;;;;;;25.92;26.13;97826.59;5052966;28;20117;-29
2021/03/28 00:49:40;;;;;;;5.93;1.27;;;;;;;25.93;26.18;97822.19;5049656;28;20029;-28
2021/03/28 00:52:13;;;;;;;2.10;1.17;;;;;;;25.91;26.12;97814.38;5037504;28;20115;-27
2021/03/28 00:54:41;;;;;;;2.90;1.48;;;;;;;25.91;25.98;97816.13;5051774;28;20032;-26
2021/03/28 00:57:19;;;;;;;3.17;1.20;;;;;;;25.93;26.01;97827.47;5052003;28;20032;-25
2021/03/28 00:59:59;;;;;;;6.07;1.30;;;;;;;25.91;25.91;97819.63;5036311;28;20031;-30
2021/03/28 01:02:32;;;;;;;2.80;1.20;;;;;;;25.92;26.16;97815.22;5040757;28;20035;-28
2021/03/28 01:05:01;;;;;;;3.28;1.08;;;;;;;25.91;25.96;97818.75;5041303;28;20082;-30
2021/03/28 01:07:33;;;;;;;3.13;1.27;;;;;;;25.91;26.00;97824.00;5054554;28;20020;-30
2021/03/28 01:10:17;;;;;;;2.85;1.23;;;;;;;25.91;26.07;97813.50;5052732;28;20115;-25
2021/03/28 01:12:55;;;;;;;2.38;1.40;;;;;;;25.90;26.08;97812.63;5046503;28;20051;-25
2021/03/28 01:15:59;;;;;;;9.13;1.50;;;;;;;25.90;26.09;97817.06;5053857;28;20032;-29
2021/03/28 01:18:27;;;;;;;2.13;1.15;;;;;;;25.90;26.11;97823.16;5042493;28;20048;-24
2021/03/28 01:21:30;;;;;;;4.38;1.10;;;;;;;25.90;25.97;97814.44;5053585;28;20053;-25
2021/03/28 01:24:28;;;;;;;3.22;1.20;;;;;;;25.90;26.12;97811.81;5048480;28;20039;-25
2021/03/28 01:27:05;;;;;;;4.20;1.48;;;;;;;25.88;26.00;97814.47;5035365;28;20051;-26
2021/03/28 01:29:39;;;;;;;3.00;1.45;;;;;;;25.88;26.08;97803.13;5054467;28;20032;-28
2021/03/28 01:32:26;;;;;;;1.98;1.30;;;;;;;25.90;26.13;97811.81;5040642;28;20447;-27
2021/03/28 01:34:52;;;;;;;2.80;1.17;;;;;;;25.88;26.00;97813.63;5050587;28;20036;-27
2021/03/28 01:37:28;;;;;;;3.45;1.20;;;;;;;25.88;25.99;97808.38;5052111;28;20032;-28
2021/03/28 01:40:11;;;;;;;3.35;1.23;;;;;;;25.87;26.12;97806.66;5053601;28;20025;-29
2021/03/28 01:43:08;;;;;;;1.92;1.08;;;;;;;25.87;26.04;97811.91;5054827;28;20596;-31
2021/03/28 01:45:36;;;;;;;3.28;1.17;;;;;;;25.87;26.23;97804.91;5047775;28;20758;-27
2021/03/28 01:48:11;;;;;;;1.85;1.15;;;;;;;25.86;26.13;97815.47;5044125;28;20492;-26
2021/03/28 01:50:51;;;;;;;3.50;1.02;;;;;;;25.86;26.01;97815.47;5053568;28;20032;-26
2021/03/28 01:53:28;;;;;;;2.67;1.20;;;;;;;25.86;26.24;97811.06;5054775;28;20032;-26
2021/03/28 01:56:00;;;;;;;8.20;1.20;;;;;;;25.86;26.05;97818.09;5051272;28;20536;-25
2021/03/28 01:59:01;;;;;;;2.05;1.23;;;;;;;25.85;26.21;97819.84;5050463;28;20119;-27
2021/03/28 02:01:39;;;;;;;3.10;1.48;;;;;;;25.85;26.11;97825.09;5032686;28;20435;-27
2021/03/28 02:04:24;;;;;;;1.95;1.20;;;;;;;25.85;26.17;97817.22;5050311;28;20032;-27
2021/03/28 02:07:07;;;;;;;4.55;1.60;;;;;;;25.86;26.02;97823.34;5051510;28;20131;-23
2021/03/28 02:09:45;;;;;;;2.05;1.15;;;;;;;25.85;25.99;97824.25;5055883;28;20044;-24
2021/03/28 02:12:20;;;;;;;3.72;1.10;;;;;;;25.85;26.05;97814.59;5049906;28;20021;-29
2021/03/28 02:15:09;;;;;;;2.15;1.08;;;;;;;25.83;26.11;97812.00;5051357;28;20111;-27
2021/03/28 02:18:01;;;;;;;2.25;0.95;;;;;;;25.85;26.03;97819.00;5051908;28;20495;-26
2021/03/28 02:20:41;;;;;;;3.10;1.23;;;;;;;25.85;26.05;97819.00;5052378;28;20167;-28
2021/03/28 02:23:26;;;;;;;2.33;0.82;;;;;;;25.83;26.15;97812.00;5048603;28;20024;-27
2021/03/28 02:26:05;;;;;;;1.85;1.10;;;;;;;25.83;26.04;97814.63;5056718;28;20520;-26
2021/03/28 02:28:55;;;;;;;2.63;0.98;;;;;;;25.82;26.18;97815.56;5037479;28;20540;-26
2021/03/28 02:31:47;;;;;;;1.88;1.00;;;;;;;25.82;26.22;97818.19;5054713;28;20365;-26
2021/03/28 02:34:24;;;;;;;1.75;1.02;;;;;;;25.83;26.25;97816.44;5038235;28;20046;-27
2021/03/28 02:37:08;;;;;;;1.98;1.00;;;;;;;25.82;26.17;97817.34;5050187;28;20101;-24
2021/03/28 02:39:43;;;;;;;1.65;1.00;;;;;;;25.82;26.06;97814.72;5039289;28;20036;-26
2021/03/28 02:42:17;;;;;;;2.03;1.15;;;;;;;25.81;25.95;97813.84;5049447;28;20199;-26
2021/03/28 02:45:19;;;;;;;2.35;0.98;;;;;;;25.81;26.20;97819.09;5039750;28;20865;-28
2021/03/28 02:48:14;;;;;;;1.33;1.02;;;;;;;25.82;26.14;97822.59;5034102;28;20060;-27
2021/03/28 02:51:18;;;;;;;2.63;1.00;;;;;;;25.82;26.17;97822.59;5069104;28;20036;-28
2021/03/28 02:54:10;;;;;;;4.07;1.08;;;;;;;25.81;26.13;97824.34;5034382;28;20659;-27
2021/03/28 02:57:00;;;;;;;2.80;1.20;;;;;;;25.81;26.24;97826.13;5051285;28;20039;-28
2021/03/28 02:59:31;;;;;;;2.50;1.20;;;;;;;25.80;25.98;97822.66;5054015;28;20032;-26
2021/03/28 03:02:28;;;;;;;3.10;1.08;;;;;;;25.79;26.16;97820.94;5042547;28;20035;-26
2021/03/28 03:05:00;;;;;;;1.52;0.98;;;;;;;25.79;26.20;97820.94;5052612;28;20209;-26
2021/03/28 03:07:26;;;;;;;2.08;0.95;;;;;;;25.79;26.08;97818.31;5048210;28;20032;-28
2021/03/28 03:10:13;;;;;;;2.90;1.00;;;;;;;25.79;26.09;97826.19;5051251;28;20575;-29
2021/03/28 03:13:10;;;;;;;1.95;0.93;;;;;;;25.79;26.20;97826.19;5035382;28;20131;-26
2021/03/28 03:15:48;;;;;;;1.45;1.00;;;;;;;25.79;26.18;97820.06;5046353;28;20037;-26
2021/03/28 03:19:04;;;;;;;2.25;0.90;;;;;;;25.79;25.97;97820.94;5046934;28;20039;-27
2021/03/28 03:21:45;;;;;;;1.50;0.95;;;;;;;25.78;26.02;97819.22;5011318;28;20505;-27
2021/03/28 03:24:41;;;;;;;2.63;1.00;;;;;;;25.77;26.16;97820.13;5048891;28;20071;-27
2021/03/28 03:27:28;;;;;;;2.08;1.10;;;;;;;25.78;26.21;97815.75;5052488;28;20051;-26
2021/03/28 03:30:31;;;;;;;2.20;0.98;;;;;;;25.77;26.20;97821.88;5050337;28;20156;-25
2021/03/28 03:33:27;;;;;;;1.80;0.80;;;;;;;25.76;26.01;97821.06;5051056;28;20028;-30
2021/03/28 03:36:10;;;;;;;2.03;0.90;;;;;;;25.76;26.08;97823.69;5056071;28;20031;-28
2021/03/28 03:39:13;;;;;;;1.67;0.90;;;;;;;25.75;26.15;97824.59;5058238;28;20063;-29
2021/03/28 03:41:41;;;;;;;2.55;1.00;;;;;;;25.75;26.28;97824.59;5054632;28;20039;-30
2021/03/28 03:44:19;;;;;;;1.67;0.73;;;;;;;25.74;26.20;97822.88;5053880;28;20033;-27
2021/03/28 03:47:02;;;;;;;2.25;0.95;;;;;;;25.75;26.09;97834.22;5056251;28;20029;-28
2021/03/28 03:50:00;;;;;;;1.67;0.88;;;;;;;25.73;26.14;97831.66;5047981;28;20029;-27
2021/03/28 03:52:44;;;;;;;1.80;0.90;;;;;;;25.72;26.30;97834.34;5042544;28;20037;-27
2021/03/28 03:55:12;;;;;;;1.58;0.85;;;;;;;25.72;26.11;97835.19;5054382;28;20609;-26
2021/03/28 03:57:43;;;;;;;2.83;0.73;;;;;;;25.72;26.30;97840.44;5054248;28;20036;-26
2021/03/28 04:00:33;;;;;;;2.30;0.70;;;;;;;25.72;26.29;97840.44;5061755;28;20086;-26
2021/03/28 04:03:20;;;;;;;1.90;0.90;;;;;;;25.72;26.35;97840.44;5053011;28;20496;-29
2021/03/28 04:06:07;;;;;;;1.10;0.68;;;;;;;25.72;26.25;97834.34;5055707;28;20328;-27
2021/03/28 04:08:53;;;;;;;2.28;0.80;;;;;;;25.72;26.36;97840.44;5053373;28;20032;-26
2021/03/28 04:11:28;;;;;;;3.10;1.20;;;;;;;25.71;26.18;97841.38;5053085;28;20075;-27
2021/03/28 04:14:08;;;;;;;1.80;0.93;;;;;;;25.70;26.26;97843.13;5055815;28;21012;-26
2021/03/28 04:16:56;;;;;;;1.05;0.80;;;;;;;25.70;26.27;97844.88;5044850;28;20075;-27
2021/03/28 04:19:31;;;;;;;1.85;0.98;;;;;;;25.69;26.24;97857.19;5041922;28;20040;-25
2021/03/28 04:22:06;;;;;;;2.63;0.95;;;;;;;25.68;26.21;97852.84;5047141;28;20452;-26
2021/03/28 04:24:46;;;;;;;2.20;0.85;;;;;;;25.69;26.21;97851.06;5045835;28;20028;-31
2021/03/28 04:27:46;;;;;;;1.38;0.80;;;;;;;25.70;26.34;97852.75;5028888;28;20036;-25
2021/03/28 04:30:38;;;;;;;0.70;0.45;;;;;;;25.69;26.30;97853.69;5043132;28;20089;-29
2021/03/28 04:33:16;;;;;;;1.23;0.70;;;;;;;25.68;26.29;97849.34;5045329;28;20122;-27
2021/03/28 04:35:55;;;;;;;1.45;0.75;;;;;;;25.69;26.13;97848.44;5041921;28;20032;-26
2021/03/28 04:38:57;;;;;;;2.40;1.00;;;;;;;25.67;26.19;97843.22;5041951;28;20028;-27
2021/03/28 04:41:38;;;;;;;1.58;0.70;;;;;;;25.67;26.21;97848.47;5051125;28;20025;-25
2021/03/28 04:44:37;;;;;;;1.35;0.70;;;;;;;25.67;26.26;97848.47;5047544;28;21005;-22
2021/03/28 04:47:18;;;;;;;3.80;0.90;;;;;;;25.66;26.38;97848.56;5030773;28;20107;-25
2021/03/28 04:50:05;;;;;;;2.47;0.60;;;;;;;25.66;26.36;97845.94;5043221;28;20715;-24
2021/03/28 04:52:54;;;;;;;1.05;0.65;;;;;;;25.65;26.33;97844.19;5044306;28;20411;-29
2021/03/28 04:55:49;;;;;;;0.68;0.52;;;;;;;25.65;26.17;97850.31;5043367;28;20036;-23
2021/03/28 04:58:32;;;;;;;1.42;0.85;;;;;;;25.65;26.16;97846.81;5042916;28;20028;-27
2021/03/28 05:01:29;;;;;;;1.55;0.80;;;;;;;25.64;26.28;97853.00;5023759;28;20059;-25
2021/03/28 05:04:41;;;;;;;1.75;1.00;;;;;;;25.64;26.21;97855.63;5042682;28;20186;-25
2021/03/28 05:07:27;;;;;;;0.75;0.70;;;;;;;25.63;26.26;97852.13;4984878;28;20441;-24
2021/03/28 05:10:31;;;;;;;1.80;0.90;;;;;;;25.62;26.17;97860.09;5026399;28;20047;-26
2021/03/28 05:13:34;;;;;;;1.00;0.60;;;;;;;25.62;26.36;97858.28;5033922;28;20068;-27
2021/03/28 05:16:20;;;;;;;2.03;0.80;;;;;;;25.63;26.40;97864.41;5053764;28;20372;-26
2021/03/28 05:19:07;;;;;;;2.33;1.08;;;;;;;25.62;26.15;97860.09;5048610;28;20079;-28
2021/03/28 05:22:09;;;;;;;1.60;0.90;;;;;;;25.61;26.27;97863.59;5051406;28;20674;-29
2021/03/28 05:25:03;;;;;;;1.90;1.00;;;;;;;25.61;26.25;97868.84;5042469;28;20036;-22
2021/03/28 05:28:02;;;;;;;1.90;0.90;;;;;;;25.59;26.27;97862.81;5042376;28;20044;-25
2021/03/28 05:30:57;;;;;;;2.40;1.00;;;;;;;25.59;26.44;97860.19;5040711;28;20412;-26
2021/03/28 05:33:22;;;;;;;1.75;0.80;;;;;;;25.60;26.39;97867.13;5041605;28;20221;-30
2021/03/28 05:35:57;;;;;;;1.27;0.73;;;;;;;25.59;26.51;97870.69;5040922;28;20644;-28
2021/03/28 05:38:56;;;;;;;0.75;0.57;;;;;;;25.57;26.51;97876.84;5042182;28;20037;-25
2021/03/28 05:41:49;;;;;;;1.35;0.80;;;;;;;25.57;26.28;97866.34;5043608;28;20028;-26
2021/03/28 05:44:23;;;;;;;1.38;0.57;;;;;;;25.57;26.48;97868.97;5041068;28;20063;-27
2021/03/28 05:46:57;;;;;;;2.15;0.75;;;;;;;25.57;26.42;97879.47;5042810;28;20161;-22
2021/03/28 05:49:37;;;;;;;1.23;0.70;;;;;;;25.58;26.21;97877.69;5040200;28;20517;-23
2021/03/28 05:52:05;;;;;;;1.17;0.75;;;;;;;25.57;26.41;97876.84;5042835;28;20080;-30
2021/03/28 05:54:59;;;;;;;1.15;0.70;;;;;;;25.57;26.29;97889.97;5042246;28;20115;-28
2021/03/28 05:57:34;;;;;;;1.48;0.75;;;;;;;25.57;26.42;97884.72;5042720;28;20059;-28
2021/03/28 06:00:21;;;;;;;1.48;0.60;;;;;;;25.59;26.33;97891.69;5042607;28;20086;-24
2021/03/28 06:03:11;;;;;;;2.05;0.50;;;;;;;25.57;26.40;97895.22;5041397;28;20033;-24
2021/03/28 06:05:58;;;;;;;3.05;0.80;;;;;;;25.57;26.23;97889.09;5043000;28;20035;-27
2021/03/28 06:08:54;;;;;;;1.45;0.88;;;;;;;25.55;26.38;97886.50;5060294;28;20508;-26
2021/03/28 06:11:43;;;;;;;1.80;1.02;;;;;;;25.55;26.17;97890.91;5040065;28;20115;-26
2021/03/28 06:14:08;;;;;;;1.42;0.60;;;;;;;25.55;26.23;97889.13;5043864;28;20124;-23
2021/03/28 06:16:56;;;;;;;0.75;0.63;;;;;;;25.55;26.24;97890.91;5042733;28;20060;-28
2021/03/28 06:19:52;;;;;;;1.52;0.70;;;;;;;25.55;26.44;97897.00;5042929;28;21409;-25
2021/03/28 06:22:27;;;;;;;0.60;0.60;;;;;;;25.55;26.33;97901.41;5044990;28;20043;-29
2021/03/28 06:25:16;;;;;;;1.30;0.70;;;;;;;25.54;26.28;97916.28;5042773;28;20426;-28
2021/03/28 06:28:04;;;;;;;2.60;0.75;;;;;;;25.54;26.33;97926.78;5061665;28;21019;-25
2021/03/28 06:30:47;;;;;;;1.63;0.65;;;;;;;25.54;26.44;97921.53;5048491;28;20053;-25
2021/03/28 06:33:15;;;;;;;1.63;0.70;;;;;;;25.54;26.41;97921.53;5048973;28;20035;-25
2021/03/28 06:36:06;;;;;;;0.93;0.70;;;;;;;25.54;26.41;97916.28;5051853;28;20086;-26
2021/03/28 06:38:56;;;;;;;0.88;0.50;;;;;;;25.54;26.31;97918.91;5052366;28;20047;-28
2021/03/28 06:41:22;;;;;;;0.93;0.50;;;;;;;25.54;26.36;97915.41;5037651;28;20025;-27
2021/03/28 06:44:18;;;;;;;0.80;0.50;;;;;;;25.53;26.31;97914.56;5051243;28;20066;-27
2021/03/28 06:47:14;;;;;;;0.88;0.68;;;;;;;25.53;26.51;97904.06;5047948;28;20037;-25
2021/03/28 06:50:41;;;;;;;1.02;0.73;;;;;;;25.53;26.43;97914.56;5040389;28;20340;-30
2021/03/28 06:53:15;;;;;;;1.83;0.73;;;;;;;25.53;26.32;97914.56;5027282;28;20036;-26
2021/03/28 06:55:44;;;;;;;1.17;0.70;;;;;;;25.52;26.44;97907.59;5040617;28;20116;-28
2021/03/28 06:58:15;;;;;;;0.75;0.50;;;;;;;25.53;26.48;97905.81;5040842;28;20048;-27
2021/03/28 07:01:02;;;;;;;2.05;0.75;;;;;;;25.53;26.35;97901.44;5039969;28;20585;-23
2021/03/28 07:04:03;;;;;;;0.88;0.60;;;;;;;25.53;26.28;97909.31;5043587;28;20036;-26
2021/03/28 07:06:34;;;;;;;0.85;0.70;;;;;;;25.54;26.30;97904.91;5044665;28;20115;-26
2021/03/28 07:09:27;;;;;;;2.60;0.93;;;;;;;25.54;26.44;97904.91;5042103;28;21575;-23
2021/03/28 07:12:00;;;;;;;10.10;1.17;;;;;;;25.54;26.34;97900.53;5044478;28;20495;-25
2021/03/28 07:14:47;;;;;;;2.17;1.10;;;;;;;25.55;26.44;97898.78;5049105;28;20055;-25
2021/03/28 07:17:13;;;;;;;6.78;1.30;;;;;;;25.55;26.21;97902.25;5046011;28;20503;-23
2021/03/28 07:19:41;;;;;;;7.18;1.48;;;;;;;25.55;26.28;97896.16;5063945;28;20060;-27
2021/03/28 07:22:25;;;;;;;3.05;1.33;;;;;;;25.54;26.23;97890.03;5051162;28;20032;-26
2021/03/28 07:25:08;;;;;;;1.23;0.88;;;;;;;25.55;26.31;97891.75;5049889;28;20037;-23
2021/03/28 07:27:53;;;;;;;11.90;1.20;;;;;;;25.56;26.23;97896.09;5051517;28;20133;-27
2021/03/28 07:30:18;;;;;;;4.15;1.02;;;;;;;25.57;26.21;97918.84;5034413;28;20032;-27
2021/03/28 07:33:05;;;;;;;3.70;1.23;;;;;;;25.59;26.45;97923.16;5051996;28;20416;-27
2021/03/28 07:35:58;;;;;;;4.18;1.02;;;;;;;25.59;26.25;97915.28;5051440;28;20036;-29
2021/03/28 07:38:53;;;;;;;5.03;1.10;;;;;;;25.60;26.38;97919.63;5053733;28;20146;-27
2021/03/28 07:41:31;;;;;;;4.00;1.13;;;;;;;25.62;26.36;97930.94;5070388;28;20078;-28
2021/03/28 07:44:17;;;;;;;2.10;1.05;;;;;;;25.61;26.46;97934.47;5068984;28;20459;-23
2021/03/28 07:46:48;;;;;;;1.75;1.08;;;;;;;25.62;26.35;97934.41;5066500;28;20024;-29
2021/03/28 07:49:21;;;;;;;6.00;1.30;;;;;;;25.64;26.42;97937.00;5065774;28;20108;-28
2021/03/28 07:52:08;;;;;;;3.05;0.85;;;;;;;25.64;26.31;97937.00;5065747;28;20441;-23
2021/03/28 07:54:52;;;;;;;2.85;0.90;;;;;;;25.66;26.44;97941.28;5065798;28;20023;-28
2021/03/28 07:57:23;;;;;;;2.60;0.75;;;;;;;25.66;26.66;97935.19;5065369;28;20519;-25
2021/03/28 08:00:12;;;;;;;5.03;1.08;;;;;;;25.68;26.51;97938.59;5065593;28;20035;-26
2021/03/28 08:03:35;;;;;;;2.45;0.80;;;;;;;25.68;26.59;97939.47;5050264;28;20031;-27
2021/03/28 08:06:18;;;;;;;4.03;1.08;;;;;;;25.69;26.64;97950.81;5047740;28;20117;-26
2021/03/28 08:09:18;;;;;;;4.70;1.05;;;;;;;25.68;26.72;97965.72;5048068;28;20052;-25
2021/03/28 08:11:53;;;;;;;2.05;0.90;;;;;;;25.69;26.64;97970.06;5061458;28;20154;-27
2021/03/28 08:14:49;;;;;;;4.47;1.08;;;;;;;25.70;26.69;97974.41;5065292;28;20020;-25
2021/03/28 08:17:52;;;;;;;1.92;0.93;;;;;;;25.71;26.55;97980.50;5068618;28;21505;-24
2021/03/28 08:20:37;;;;;;;8.88;1.17;;;;;;;25.71;26.70;97977.88;5065968;28;20051;-28
2021/03/28 08:23:27;;;;;;;1.88;0.80;;;;;;;25.71;26.68;97975.25;5067939;28;20555;-30
2021/03/28 08:26:11;;;;;;;1.40;0.70;;;;;;;25.73;26.73;97972.59;5069464;28;20043;-26
2021/03/28 08:28:59;;;;;;;3.97;1.08;;;;;;;25.72;26.77;97976.97;5065546;28;20027;-26
2021/03/28 08:31:36;;;;;;;1.30;0.73;;;;;;;25.74;26.67;97985.63;5068135;28;20518;-25
2021/03/28 08:34:29;;;;;;;4.47;1.08;;;;;;;25.75;26.65;97992.63;5065788;28;20024;-26
2021/03/28 08:37:19;;;;;;;2.15;1.00;;;;;;;25.75;26.65;97987.38;5069144;28;20038;-27
2021/03/28 08:39:53;;;;;;;3.08;0.82;;;;;;;25.76;26.71;97989.09;5069320;28;20648;-29
2021/03/28 08:42:43;;;;;;;6.68;0.93;;;;;;;25.77;26.75;97980.28;5068602;28;20031;-27
2021/03/28 08:45:28;;;;;;;2.03;0.75;;;;;;;25.78;26.74;97982.00;5067415;28;20039;-23
2021/03/28 08:48:06;;;;;;;2.00;0.80;;;;;;;25.80;26.75;97985.44;5068119;28;20024;-26
2021/03/28 08:50:32;;;;;;;1.27;0.63;;;;;;;25.81;26.80;97988.91;5068518;28;20039;-26
2021/03/28 08:53:35;;;;;;;1.33;0.60;;;;;;;25.82;26.74;97983.59;5064041;28;20073;-26
2021/03/28 08:56:29;;;;;;;4.68;0.95;;;;;;;25.85;26.83;97976.56;5066704;28;20024;-26
2021/03/28 08:59:30;;;;;;;1.40;0.70;;;;;;;25.85;26.94;97977.41;5068019;28;20031;-28
2021/03/28 09:01:59;;;;;;;1.63;0.68;;;;;;;25.86;26.93;97975.63;5023427;28;20116;-26
2021/03/28 09:05:17;;;;;;;19.58;3.33;;;;;;;25.85;25.57;97968.69;5056906;28;20206;-26
2021/03/28 09:07:59;;;;;;;6.70;2.97;;;;;;;25.78;24.37;97968.03;5062135;28;20596;-25
2021/03/28 09:10:34;;;;;;;10.45;2.97;;;;;;;25.65;23.19;97964.94;5070305;28;20044;-26
2021/03/28 09:12:59;;;;;;;8.82;2.88;;;;;;;25.50;22.46;97964.53;5066347;28;20051;-28
2021/03/28 09:15:40;;;;;;;7.00;2.50;;;;;;;25.35;21.85;97972.94;5066173;28;20027;-25
2021/03/28 09:18:39;;;;;;;10.27;2.80;;;;;;;25.17;21.53;97964.75;5063999;28;20040;-24
2021/03/28 09:21:25;;;;;;;11.38;3.13;;;;;;;24.98;21.72;97970.53;5066443;28;20538;-29
2021/03/28 09:24:06;;;;;;;6.10;2.33;;;;;;;24.85;21.67;97970.06;5070044;28;20024;-23
2021/03/28 09:27:05;;;;;;;8.23;2.87;;;;;;;24.76;21.67;97968.56;5064846;28;20038;-23
2021/03/28 09:30:04;;;;;;;6.93;2.30;;;;;;;24.68;21.60;97967.94;5066078;28;20036;-24
2021/03/28 09:33:07;;;;;;;9.25;2.78;;;;;;;24.64;21.63;97966.31;5067929;28;20032;-25
2021/03/28 09:35:35;;;;;;;8.00;2.45;;;;;;;24.62;21.59;97968.09;5067714;28;20715;-29
2021/03/28 09:38:34;;;;;;;7.90;2.58;;;;;;;24.60;21.61;97970.75;5064759;28;20120;-28
2021/03/28 09:41:16;;;;;;;7.47;2.25;;;;;;;24.59;21.67;97982.16;5072744;28;20036;-23
2021/03/28 09:44:00;;;;;;;7.35;2.10;;;;;;;24.61;21.91;97959.41;5064593;28;20119;-27
2021/03/28 09:47:03;;;;;;;13.10;2.60;;;;;;;24.67;22.26;97968.81;5062856;28;20032;-25
2021/03/28 09:49:58;;;;;;;8.95;2.55;;;;;;;24.72;22.40;97964.31;5062892;28;20047;-28
2021/03/28 09:52:45;;;;;;;6.68;2.00;;;;;;;24.77;22.52;97957.19;5080789;28;20041;-27
2021/03/28 09:55:32;;;;;;;6.68;2.10;;;;;;;24.83;22.57;97950.03;5063398;28;21387;-23
2021/03/28 09:58:13;;;;;;;11.95;2.63;;;;;;;24.86;22.70;97940.31;5063982;28;20020;-25
2021/03/28 10:00:41;;;;;;;8.13;2.60;;;;;;;24.91;22.70;97937.56;5068216;28;20028;-24
2021/03/28 10:03:17;;;;;;;12.88;2.40;;;;;;;24.94;22.82;97939.22;5067002;28;20051;-27
2021/03/28 10:05:42;;;;;;;11.50;2.70;;;;;;;24.96;23.02;97927.78;5075455;28;20055;-30
2021/03/28 10:08:20;;;;;;;9.68;2.60;;;;;;;25.00;22.87;97924.16;5064816;28;20516;-29
2021/03/28 10:10:52;;;;;;;10.27;2.30;;;;;;;25.04;23.24;97928.41;5071286;28;20115;-28
2021/03/28 10:13:36;;;;;;;13.55;2.60;;;;;;;25.08;23.17;97930.91;5069870;28;20024;-26
2021/03/28 10:16:15;;;;;;;14.77;2.38;;;;;;;25.12;23.35;97935.16;5070718;28;20043;-30
2021/03/28 10:18:55;;;;;;;8.23;2.40;;;;;;;25.14;23.40;97941.22;5057025;28;20518;-26
2021/03/28 10:21:35;;;;;;;7.55;2.65;;;;;;;25.16;23.31;97927.16;5070040;28;20416;-28
2021/03/28 10:24:41;;;;;;;8.95;2.47;;;;;;;25.18;23.59;97920.06;5067837;28;20154;-29
2021/03/28 10:27:25;;;;;;;9.18;2.70;;;;;;;25.21;23.70;97919.16;5055160;28;20115;-28
2021/03/28 10:29:53;;;;;;;11.75;2.58;;;;;;;25.22;23.63;97926.09;5056274;28;20024;-27
2021/03/28 10:33:03;;;;;;;6.13;2.13;;;;;;;25.24;23.77;97924.25;5068418;28;20627;-30
2021/03/28 10:35:53;;;;;;;8.07;2.30;;;;;;;25.26;23.77;97921.59;5062192;28;20153;-28
2021/03/28 10:38:41;;;;;;;8.43;2.38;;;;;;;25.27;23.76;97929.41;5072085;28;20028;-31
2021/03/28 10:41:35;;;;;;;7.78;2.30;;;;;;;25.29;23.84;97927.59;5075076;28;20037;-28
2021/03/28 10:44:25;;;;;;;4.65;1.98;;;;;;;25.30;23.84;97923.22;5069474;28;20027;-28
2021/03/28 10:47:28;;;;;;;6.05;2.10;;;;;;;25.31;23.89;97920.53;5055238;28;20135;-29
2021/03/28 10:50:32;;;;;;;5.20;1.80;;;;;;;25.31;23.94;97915.28;5073240;28;20029;-29
2021/03/28 10:53:29;;;;;;;7.28;2.15;;;;;;;25.34;24.31;97911.72;5046127;28;20044;-28
2021/03/28 10:55:54;;;;;;;5.32;2.00;;;;;;;25.35;24.15;97904.72;5074473;28;20117;-30
2021/03/28 10:58:35;;;;;;;7.60;2.08;;;;;;;25.36;24.38;97907.25;5069616;28;20032;-30
2021/03/28 11:01:28;;;;;;;4.93;1.85;;;;;;;25.38;24.10;97915.06;5069740;28;20037;-30
2021/03/28 11:04:27;;;;;;;8.18;2.15;;;;;;;25.38;24.44;97894.09;5067756;28;20542;-32
2021/03/28 11:07:20;;;;;;;4.90;1.67;;;;;;;25.39;24.50;97890.53;5070117;28;20042;-29
2021/03/28 11:10:23;;;;;;;6.40;1.88;;;;;;;25.40;24.53;97898.38;5075420;28;20046;-29
2021/03/28 11:13:10;;;;;;;4.50;1.67;;;;;;;25.41;24.35;97894.88;5071180;28;20052;-32
2021/03/28 11:16:03;;;;;;;5.40;1.80;;;;;;;25.42;24.53;97882.56;5073140;28;20461;-28
2021/03/28 11:18:47;;;;;;;4.82;1.77;;;;;;;25.43;24.51;97886.91;5073165;28;20028;-31
2021/03/28 11:21:37;;;;;;;8.27;1.50;;;;;;;25.43;24.51;97873.78;5066666;28;20020;-26
2021/03/28 11:24:35;;;;;;;3.78;1.92;;;;;;;25.43;24.68;97864.16;5071372;28;20114;-30
2021/03/28 11:27:09;;;;;;;9.60;1.80;;;;;;;25.45;24.90;97874.59;5068937;28;20021;-28
2021/03/28 11:30:02;;;;;;;4.32;1.90;;;;;;;25.45;24.78;97879.84;5068043;28;20030;-27
2021/03/28 11:32:46;;;;;;;6.15;1.83;;;;;;;25.46;24.78;97871.06;5056487;28;20029;-26
2021/03/28 11:35:35;;;;;;;3.33;1.60;;;;;;;25.47;24.95;97872.78;5069906;28;20046;-28
2021/03/28 11:38:16;;;;;;;3.35;1.58;;;;;;;25.48;25.02;97868.41;5062576;28;20419;-30
2021/03/28 11:40:43;;;;;;;6.25;2.05;;;;;;;25.48;24.79;97869.25;5069301;28;20111;-31
2021/03/28 11:43:08;;;;;;;5.97;1.80;;;;;;;25.49;24.99;97860.47;5069542;28;20025;-32
2021/03/28 11:45:36;;;;;;;2.75;1.33;;;;;;;25.50;25.05;97854.31;5070376;28;20028;-28
2021/03/28 11:48:03;;;;;;;3.95;1.58;;;;;;;25.51;25.10;97857.81;5084296;28;20478;-31
2021/03/28 11:50:39;;;;;;;3.92;1.42;;;;;;;25.52;25.03;97857.72;5070320;28;20120;-30
2021/03/28 11:53:19;;;;;;;2.92;1.40;;;;;;;25.53;25.02;97855.97;5061007;28;20147;-29
2021/03/28 11:55:51;;;;;;;4.43;1.77;;;;;;;25.52;25.18;97852.47;5075649;28;20036;-29
2021/03/28 11:58:17;;;;;;;3.33;1.40;;;;;;;25.54;25.22;97839.28;5057478;28;20484;-28
2021/03/28 12:00:46;;;;;;;4.88;1.40;;;;;;;25.54;25.08;97837.53;5072476;28;20039;-29
2021/03/28 12:03:15;;;;;;;4.10;1.52;;;;;;;25.54;25.29;97827.03;5069052;28;20024;-30
2021/03/28 12:05:52;;;;;;;4.45;1.67;;;;;;;25.55;25.52;97828.75;5077128;28;20023;-28
2021/03/28 12:08:17;;;;;;;4.00;1.50;;;;;;;25.57;25.34;97826.09;5071857;28;20387;-30
2021/03/28 12:10:43;;;;;;;4.82;1.70;;;;;;;25.57;25.21;97818.22;5055109;28;20020;-31
2021/03/28 12:13:41;;;;;;;4.25;1.20;;;;;;;25.57;25.43;97821.72;5073965;28;20059;-29
2021/03/28 12:16:07;;;;;;;2.45;1.55;;;;;;;25.58;25.41;97806.81;5072993;28;20501;-28
2021/03/28 12:18:38;;;;;;;2.45;1.17;;;;;;;25.59;25.49;97803.28;5074052;28;20028;-30
2021/03/28 12:21:07;;;;;;;3.95;1.60;;;;;;;25.59;25.60;97812.94;5070944;28;20059;-26
2021/03/28 12:23:47;;;;;;;4.05;1.75;;;;;;;25.60;25.59;97810.25;5072971;28;20528;-27
2021/03/28 12:26:18;;;;;;;3.10;1.45;;;;;;;25.61;25.72;97813.72;5074801;28;20039;-30
2021/03/28 12:28:49;;;;;;;4.05;1.73;;;;;;;25.62;25.52;97812.84;5071264;28;20059;-29
2021/03/28 12:31:38;;;;;;;2.75;1.30;;;;;;;25.62;25.76;97807.59;5072289;28;20040;-29
2021/03/28 12:34:19;;;;;;;4.07;1.33;;;;;;;25.61;25.68;97811.09;5069085;28;20040;-28
2021/03/28 12:36:51;;;;;;;4.63;1.40;;;;;;;25.62;25.72;97808.41;5073271;28;20020;-28
2021/03/28 12:39:21;;;;;;;2.72;1.20;;;;;;;25.63;25.78;97815.38;5063826;28;20033;-27
2021/03/28 12:42:17;;;;;;;4.10;1.52;;;;;;;25.63;25.74;97799.63;5070928;28;20024;-28
2021/03/28 12:44:47;;;;;;;3.58;1.38;;;;;;;25.66;25.77;97803.94;5066470;28;20115;-28
2021/03/28 12:47:18;;;;;;;3.10;1.40;;;;;;;25.65;25.90;97787.31;5057810;28;20519;-29
2021/03/28 12:49:45;;;;;;;2.72;1.45;;;;;;;25.67;25.67;97789.88;5072930;28;20032;-28